createdAt,value
2022-09-02T00:01:55.544Z,2.50
2022-09-02T00:04:25.832Z,3.70
2022-09-02T00:06:54.896Z,2.70
2022-09-02T00:09:24.902Z,2.25
2022-09-02T00:11:54.402Z,2.88
2022-09-02T00:14:31.439Z,2.80
2022-09-02T00:17:00.924Z,2.30
2022-09-02T00:19:29.774Z,3.05
2022-09-02T00:22:00.341Z,2.80
2022-09-02T00:24:33.009Z,2.95
2022-09-02T00:27:02.697Z,3.90
2022-09-02T00:29:34.567Z,3.00
2022-09-02T00:32:02.076Z,5.43
2022-09-02T00:34:32.084Z,5.47
2022-09-02T00:36:59.371Z,4.22
2022-09-02T00:39:26.633Z,5.63
2022-09-02T00:41:58.772Z,5.18
2022-09-02T00:44:25.961Z,4.60
2022-09-02T00:46:53.165Z,4.60
2022-09-02T00:49:31.259Z,4.70
2022-09-02T00:52:12.875Z,2.78
2022-09-02T00:54:49.658Z,4.57
2022-09-02T00:57:23.972Z,5.47
2022-09-02T01:00:06.300Z,3.30
2022-09-02T01:02:39.473Z,2.33
2022-09-02T01:05:11.145Z,2.78
2022-09-02T01:07:44.733Z,4.15
2022-09-02T01:10:20.196Z,2.13
2022-09-02T01:12:54.493Z,2.92
2022-09-02T01:15:25.265Z,2.17
2022-09-02T01:17:53.195Z,4.35
2022-09-02T01:20:28.067Z,2.63
2022-09-02T01:22:57.200Z,4.97
2022-09-02T01:25:27.943Z,3.22
2022-09-02T01:28:04.734Z,2.85
2022-09-02T01:30:33.753Z,5.07
2022-09-02T01:33:01.142Z,4.47
2022-09-02T01:35:30.580Z,3.72
2022-09-02T01:38:02.443Z,4.18
2022-09-02T01:40:31.430Z,3.60
2022-09-02T01:43:05.740Z,3.60
2022-09-02T01:45:37.100Z,8.15
2022-09-02T01:48:05.844Z,3.65
2022-09-02T01:50:39.079Z,7.50
2022-09-02T01:53:11.501Z,7.38
2022-09-02T01:55:43.301Z,5.20
2022-09-02T01:58:13.344Z,5.22
2022-09-02T02:00:43.141Z,8.18
2022-09-02T02:03:10.506Z,4.80
2022-09-02T02:05:43.095Z,6.10
2022-09-02T02:08:10.572Z,7.40
2022-09-02T02:10:43.120Z,3.40
2022-09-02T02:13:11.183Z,4.95
2022-09-02T02:15:44.500Z,4.50
2022-09-02T02:18:12.594Z,3.25
2022-09-02T02:20:42.906Z,3.92
2022-09-02T02:23:14.582Z,4.85
2022-09-02T02:25:41.976Z,2.53
2022-09-02T02:28:11.526Z,4.57
2022-09-02T02:30:41.303Z,3.45
2022-09-02T02:33:08.530Z,2.83
2022-09-02T02:35:35.926Z,4.68
2022-09-02T02:38:06.066Z,6.13
2022-09-02T02:40:38.664Z,4.70
2022-09-02T02:43:06.088Z,4.88
2022-09-02T02:45:35.628Z,3.17
2022-09-02T02:48:06.051Z,3.03
2022-09-02T02:50:33.533Z,5.68
2022-09-02T02:53:03.358Z,2.17
2022-09-02T02:55:32.966Z,3.63
2022-09-02T02:58:01.527Z,4.63
2022-09-02T03:00:30.842Z,3.50
2022-09-02T03:03:03.407Z,2.85
2022-09-02T03:05:35.647Z,5.43
2022-09-02T03:08:05.440Z,4.05
2022-09-02T03:10:33.404Z,4.82
2022-09-02T03:13:01.664Z,6.53
2022-09-02T03:15:29.742Z,4.40
2022-09-02T03:18:03.838Z,2.92
2022-09-02T03:20:35.825Z,5.80
2022-09-02T03:23:03.828Z,3.75
2022-09-02T03:25:35.790Z,4.82
2022-09-02T03:28:04.462Z,3.13
2022-09-02T03:30:40.159Z,2.83
2022-09-02T03:33:12.283Z,3.55
2022-09-02T03:35:42.491Z,2.38
2022-09-02T03:38:12.875Z,2.50
2022-09-02T03:40:42.240Z,4.68
2022-09-02T03:43:09.576Z,2.85
2022-09-02T03:45:41.814Z,4.07
2022-09-02T03:48:13.175Z,3.38
2022-09-02T03:50:47.171Z,2.50
2022-09-02T03:53:19.533Z,2.75
2022-09-02T03:55:50.652Z,2.42
2022-09-02T03:58:21.418Z,3.15
2022-09-02T04:00:54.730Z,2.55
2022-09-02T04:03:22.485Z,3.15
2022-09-02T04:05:51.439Z,4.28
2022-09-02T04:08:23.711Z,4.72
2022-09-02T04:10:53.398Z,4.07
2022-09-02T04:13:20.601Z,2.13
2022-09-02T04:15:50.849Z,3.33
2022-09-02T04:18:18.607Z,4.10
2022-09-02T04:20:46.265Z,4.28
2022-09-02T04:23:13.856Z,4.78
2022-09-02T04:25:46.627Z,3.50
2022-09-02T04:28:16.335Z,2.08
2022-09-02T04:30:46.586Z,3.50
2022-09-02T04:33:16.938Z,2.17
2022-09-02T04:35:46.190Z,9.07
2022-09-02T04:38:14.094Z,2.58
2022-09-02T04:40:43.613Z,4.18
2022-09-02T04:43:14.034Z,4.85
2022-09-02T04:45:43.546Z,4.50
2022-09-02T04:48:13.826Z,6.65
2022-09-02T04:50:45.871Z,8.43
2022-09-02T04:53:16.352Z,6.57
2022-09-02T04:55:48.076Z,4.60
2022-09-02T04:58:16.655Z,6.93
2022-09-02T05:00:43.950Z,7.43
2022-09-02T05:03:11.871Z,16.52
2022-09-02T05:05:41.532Z,12.75
2022-09-02T05:08:08.863Z,7.63
2022-09-02T05:10:36.469Z,9.75
2022-09-02T05:13:03.836Z,7.72
2022-09-02T05:15:33.543Z,4.63
2022-09-02T05:18:03.763Z,5.90
2022-09-02T05:20:34.055Z,4.55
2022-09-02T05:23:02.156Z,4.25
2022-09-02T05:25:29.366Z,7.90
2022-09-02T05:27:56.570Z,12.13
2022-09-02T05:30:23.993Z,5.13
2022-09-02T05:32:53.780Z,10.82
2022-09-02T05:35:21.296Z,9.55
2022-09-02T05:37:51.104Z,12.65
2022-09-02T05:40:22.697Z,15.23
2022-09-02T05:42:50.021Z,7.57
2022-09-02T05:45:24.049Z,9.82
2022-09-02T05:47:55.886Z,6.60
2022-09-02T05:50:23.117Z,4.20
2022-09-02T05:52:51.464Z,8.45
2022-09-02T05:55:21.214Z,13.20
2022-09-02T05:57:48.511Z,11.52
2022-09-02T06:00:18.404Z,7.32
2022-09-02T06:02:48.020Z,8.45
2022-09-02T06:05:18.333Z,13.38
2022-09-02T06:07:45.515Z,7.55
2022-09-02T06:10:17.437Z,11.13
2022-09-02T06:12:49.609Z,10.18
2022-09-02T06:15:21.351Z,6.40
2022-09-02T06:17:59.409Z,14.23
2022-09-02T06:20:29.186Z,8.00
2022-09-02T06:23:01.401Z,4.97
2022-09-02T06:25:30.838Z,12.00
2022-09-02T06:28:04.032Z,10.32
2022-09-02T06:30:43.219Z,11.07
2022-09-02T06:33:17.192Z,9.75
2022-09-02T06:35:46.403Z,7.18
2022-09-02T06:38:14.560Z,7.70
2022-09-02T06:40:50.578Z,8.65
2022-09-02T06:43:18.143Z,10.15
2022-09-02T06:45:45.666Z,5.40
2022-09-02T06:48:15.893Z,6.35
2022-09-02T06:50:46.620Z,4.75
2022-09-02T06:53:17.786Z,7.78
2022-09-02T06:55:47.989Z,8.63
2022-09-02T06:58:20.086Z,6.22
2022-09-02T07:00:47.366Z,6.47
2022-09-02T07:03:35.934Z,7.35
2022-09-02T07:06:11.403Z,5.38
2022-09-02T07:08:43.144Z,5.35
2022-09-02T07:11:20.169Z,8.10
2022-09-02T07:13:50.222Z,6.30
2022-09-02T07:16:26.970Z,4.03
2022-09-02T07:18:55.247Z,4.97
2022-09-02T07:21:24.885Z,5.90
2022-09-02T07:23:55.147Z,5.22
2022-09-02T07:26:22.832Z,5.90
2022-09-02T07:28:50.128Z,5.65
2022-09-02T07:31:20.643Z,5.22
2022-09-02T07:33:49.916Z,4.88
2022-09-02T07:36:21.701Z,2.30
2022-09-02T07:38:51.490Z,2.67
2022-09-02T07:41:19.291Z,4.55
2022-09-02T07:43:51.612Z,4.18
2022-09-02T07:46:26.788Z,3.50
2022-09-02T07:48:57.078Z,7.05
2022-09-02T07:51:25.005Z,2.92
2022-09-02T07:53:58.448Z,2.50
2022-09-02T07:56:28.366Z,4.40
2022-09-02T07:59:00.360Z,3.15
2022-09-02T08:01:32.189Z,3.33
2022-09-02T08:04:01.589Z,3.88
2022-09-02T08:06:37.708Z,3.95
2022-09-02T08:09:11.076Z,3.97
2022-09-02T08:11:46.547Z,2.35
2022-09-02T08:14:25.177Z,5.63
2022-09-02T08:16:57.021Z,5.53
2022-09-02T08:19:27.433Z,4.65
2022-09-02T08:22:08.325Z,2.58
2022-09-02T08:24:39.702Z,4.03
2022-09-02T08:27:07.144Z,3.33
2022-09-02T08:29:35.214Z,3.20
2022-09-02T08:32:02.639Z,4.57
2022-09-02T08:34:33.155Z,4.93
2022-09-02T08:37:07.427Z,6.95
2022-09-02T08:39:37.125Z,6.78
2022-09-02T08:42:22.913Z,4.35
2022-09-02T08:44:55.283Z,7.20
2022-09-02T08:47:29.671Z,5.10
2022-09-02T08:50:03.272Z,3.17
2022-09-02T08:53:10.909Z,2.58
2022-09-02T08:55:54.173Z,5.13
2022-09-02T08:58:28.841Z,2.88
2022-09-02T09:01:20.732Z,4.28
2022-09-02T09:04:05.521Z,9.57
2022-09-02T09:07:02.138Z,6.47
2022-09-02T09:09:54.423Z,9.52
2022-09-02T09:12:27.412Z,7.70
2022-09-02T09:15:29.508Z,16.38
2022-09-02T09:17:59.937Z,14.07
2022-09-02T09:20:38.772Z,8.90
2022-09-02T09:23:22.311Z,5.30
2022-09-02T09:25:58.174Z,6.40
2022-09-02T09:28:28.711Z,5.82
2022-09-02T09:30:59.172Z,6.22
2022-09-02T09:33:26.408Z,4.72
2022-09-02T09:35:56.040Z,5.97
2022-09-02T09:38:32.175Z,3.58
2022-09-02T09:41:11.220Z,4.13
2022-09-02T09:43:38.660Z,7.18
2022-09-02T09:46:27.608Z,4.78
2022-09-02T09:48:57.830Z,2.90
2022-09-02T09:51:25.040Z,60.63
2022-09-02T09:53:52.980Z,50.13
2022-09-02T09:56:29.266Z,38.45
2022-09-02T09:58:56.540Z,5.00
2022-09-02T10:01:32.336Z,3.60
2022-09-02T10:07:02.484Z,2.70
2022-09-02T10:09:33.847Z,5.00
2022-09-02T10:12:17.152Z,5.90
2022-09-02T10:14:50.211Z,3.65
2022-09-02T10:17:56.182Z,5.55
2022-09-02T10:20:44.567Z,2.92
2022-09-02T10:23:35.515Z,2.22
2022-09-02T10:26:31.232Z,3.83
2022-09-02T10:29:33.569Z,4.18
2022-09-02T10:32:27.922Z,1.30
2022-09-02T10:35:15.889Z,2.15
2022-09-02T10:37:48.747Z,6.25
2022-09-02T10:40:26.202Z,3.97
2022-09-02T10:43:05.858Z,4.13
2022-09-02T10:45:58.183Z,3.97
2022-09-02T10:48:37.212Z,4.88
2022-09-02T10:51:39.540Z,2.08
2022-09-02T10:54:36.044Z,1.95
2022-09-02T10:57:28.526Z,3.17
2022-09-02T11:00:09.603Z,2.22
2022-09-02T11:02:55.731Z,3.00
2022-09-02T11:05:36.332Z,2.10
2022-09-02T11:08:14.648Z,12.15
2022-09-02T11:10:53.288Z,4.82
2022-09-02T11:13:32.706Z,2.53
2022-09-02T11:16:07.415Z,5.43
2022-09-02T11:19:11.097Z,1.73
2022-09-02T11:22:00.213Z,1.45
2022-09-02T11:24:47.284Z,7.10
2022-09-02T11:27:39.024Z,1.98
2022-09-02T11:30:20.949Z,1.95
2022-09-02T11:32:56.997Z,6.47
2022-09-02T11:35:38.961Z,7.38
2022-09-02T11:38:17.716Z,3.53
2022-09-02T11:43:48.371Z,4.53
2022-09-02T11:46:38.505Z,3.63
2022-09-02T11:49:27.347Z,3.42
2022-09-02T11:52:13.363Z,2.67
2022-09-02T11:54:46.802Z,3.20
2022-09-02T11:57:24.053Z,1.65
2022-09-02T11:59:51.750Z,1.92
2022-09-02T12:02:40.953Z,2.97
2022-09-02T12:05:30.413Z,2.78
2022-09-02T12:08:12.466Z,1.40
2022-09-02T12:10:43.396Z,3.65
2022-09-02T12:16:26.246Z,2.08
2022-09-02T12:18:56.798Z,3.35
2022-09-02T12:21:28.554Z,2.33
2022-09-02T12:23:55.849Z,1.83
2022-09-02T12:26:31.326Z,4.03
2022-09-02T12:29:24.713Z,5.53
2022-09-02T12:31:53.448Z,4.47
2022-09-02T12:34:20.649Z,5.90
2022-09-02T12:36:57.949Z,3.72
2022-09-02T12:39:25.556Z,4.05
2022-09-02T12:42:13.106Z,3.28
2022-09-02T12:45:04.989Z,3.25
2022-09-02T12:47:53.557Z,3.55
2022-09-02T12:50:26.924Z,1.98
2022-09-02T12:53:34.682Z,1.92
2022-09-02T12:56:21.941Z,1.95
2022-09-02T12:58:55.307Z,7.95
2022-09-02T13:01:48.115Z,1.90
2022-09-02T13:04:43.571Z,3.13
2022-09-02T13:07:29.215Z,1.75
2022-09-02T13:11:00.902Z,1.15
2022-09-02T13:13:45.818Z,4.80
2022-09-02T13:16:37.213Z,2.28
2022-09-02T13:19:25.741Z,5.55
2022-09-02T13:22:43.266Z,1.52
2022-09-02T13:25:30.743Z,2.55
2022-09-02T13:28:00.880Z,4.95
2022-09-02T13:30:52.287Z,1.40
2022-09-02T13:33:22.106Z,1.48
2022-09-02T13:35:55.912Z,1.00
2022-09-02T13:38:28.216Z,5.60
2022-09-02T13:40:55.936Z,7.82
2022-09-02T13:43:27.339Z,3.20
2022-09-02T13:46:03.734Z,5.65
2022-09-02T13:48:33.040Z,2.85
2022-09-02T13:51:18.519Z,2.17
2022-09-02T13:54:21.542Z,1.95
2022-09-02T13:56:38.592Z,0.90
2022-09-02T13:59:07.839Z,0.95
2022-09-02T14:01:40.568Z,1.40
2022-09-02T14:04:17.177Z,1.05
2022-09-02T14:06:47.529Z,1.83
2022-09-02T14:09:22.226Z,2.17
2022-09-02T14:11:53.895Z,2.33
2022-09-02T14:14:25.099Z,5.47
2022-09-02T14:16:52.864Z,11.63
2022-09-02T14:19:20.119Z,3.83
2022-09-02T14:21:51.629Z,1.10
2022-09-02T14:24:27.855Z,2.08
2022-09-02T14:27:03.514Z,1.55
2022-09-02T14:29:33.605Z,4.88
2022-09-02T14:32:16.036Z,4.13
2022-09-02T14:34:47.902Z,1.15
2022-09-02T14:37:30.960Z,6.47
2022-09-02T14:40:12.975Z,1.83
2022-09-02T14:42:56.552Z,0.85
2022-09-02T14:45:31.100Z,1.73
2022-09-02T14:48:02.936Z,0.90
2022-09-02T14:50:36.542Z,1.58
2022-09-02T14:53:10.322Z,1.27
2022-09-02T14:55:48.282Z,1.02
2022-09-02T14:58:16.902Z,2.45
2022-09-02T15:00:55.611Z,2.17
2022-09-02T15:03:26.098Z,1.23
2022-09-02T15:05:53.961Z,1.20
2022-09-02T15:08:25.872Z,2.60
2022-09-02T15:10:58.248Z,1.67
2022-09-02T15:13:35.003Z,7.13
2022-09-02T15:16:05.809Z,2.05
2022-09-02T15:18:33.144Z,0.90
2022-09-02T15:21:03.242Z,2.20
2022-09-02T15:23:34.910Z,1.10
2022-09-02T15:26:03.934Z,1.30
2022-09-02T15:28:31.206Z,2.53
2022-09-02T15:31:00.273Z,1.20
2022-09-02T15:33:28.571Z,2.17
2022-09-02T15:36:04.566Z,1.17
2022-09-02T15:38:37.585Z,1.25
2022-09-02T15:41:12.745Z,1.20
2022-09-02T15:43:40.017Z,2.58
2022-09-02T15:46:37.489Z,2.20
2022-09-02T15:49:09.353Z,2.05
2022-09-02T15:51:44.914Z,0.98
2022-09-02T15:54:15.496Z,2.05
2022-09-02T15:56:45.573Z,2.10
2022-09-02T15:59:22.222Z,1.02
2022-09-02T16:01:52.037Z,1.73
2022-09-02T16:04:19.304Z,2.17
2022-09-02T16:06:49.065Z,1.50
2022-09-02T16:09:17.744Z,2.13
2022-09-02T16:11:51.902Z,2.03
2022-09-02T16:14:21.300Z,1.05
2022-09-02T16:16:55.859Z,1.08
2022-09-02T16:19:30.022Z,2.67
2022-09-02T16:21:58.496Z,1.10
2022-09-02T16:24:25.763Z,1.85
2022-09-02T16:26:57.671Z,6.45
2022-09-02T16:29:28.093Z,11.35
2022-09-02T16:34:46.826Z,2.30
2022-09-02T16:37:14.464Z,3.00
2022-09-02T16:39:44.469Z,3.22
2022-09-02T16:42:11.674Z,4.50
2022-09-02T16:44:41.536Z,2.15
2022-09-02T16:47:08.907Z,1.20
2022-09-02T16:49:43.563Z,1.25
2022-09-02T16:52:13.296Z,2.65
2022-09-02T16:54:41.277Z,1.77
2022-09-02T16:57:11.330Z,3.13
2022-09-02T16:59:41.028Z,4.35
2022-09-02T17:02:08.391Z,3.28
2022-09-02T17:04:35.728Z,2.00
2022-09-02T17:07:05.365Z,2.47
2022-09-02T17:09:32.627Z,1.65
2022-09-02T17:11:59.843Z,3.55
2022-09-02T17:14:27.217Z,1.73
2022-09-02T17:16:54.663Z,2.80
2022-09-02T17:19:27.303Z,1.77
2022-09-02T17:21:59.951Z,2.70
2022-09-02T17:24:31.656Z,1.70
2022-09-02T17:27:04.585Z,1.70
2022-09-02T17:29:51.935Z,2.38
2022-09-02T17:32:19.934Z,2.17
2022-09-02T17:34:49.790Z,1.55
2022-09-02T17:37:22.434Z,3.25
2022-09-02T17:39:55.080Z,2.85
2022-09-02T17:42:22.299Z,4.38
2022-09-02T17:44:49.640Z,2.63
2022-09-02T17:47:22.039Z,1.50
2022-09-02T17:49:52.154Z,2.22
2022-09-02T17:52:24.156Z,1.60
2022-09-02T17:54:52.988Z,1.75
2022-09-02T17:57:28.687Z,4.55
2022-09-02T18:00:03.684Z,2.60
2022-09-02T18:02:34.002Z,2.63
2022-09-02T18:05:19.804Z,2.08
2022-09-02T18:08:01.488Z,4.15
2022-09-02T18:10:34.388Z,2.67
2022-09-02T18:13:13.348Z,4.53
2022-09-02T18:16:15.205Z,3.97
2022-09-02T18:18:59.685Z,3.30
2022-09-02T18:21:52.005Z,3.15
2022-09-02T18:24:27.325Z,2.83
2022-09-02T18:27:03.710Z,5.05
2022-09-02T18:29:57.031Z,3.20
2022-09-02T18:32:47.631Z,2.22
2022-09-02T18:35:43.784Z,4.60
2022-09-02T18:38:38.600Z,3.88
2022-09-02T18:41:44.569Z,4.80
2022-09-02T18:44:21.647Z,3.28
2022-09-02T18:46:59.180Z,6.85
2022-09-02T18:49:33.402Z,2.28
2022-09-02T18:52:05.094Z,3.10
2022-09-02T18:54:42.278Z,6.97
2022-09-02T18:57:10.034Z,3.90
2022-09-02T18:59:43.216Z,2.97
2022-09-02T19:02:39.860Z,2.72
2022-09-02T19:05:11.904Z,3.33
2022-09-02T19:07:57.980Z,4.85
2022-09-02T19:10:25.132Z,1.77
2022-09-02T19:13:02.514Z,1.88
2022-09-02T19:15:29.726Z,3.35
2022-09-02T19:17:59.821Z,4.50
2022-09-02T19:20:29.609Z,5.68
2022-09-02T19:23:00.619Z,3.63
2022-09-02T19:25:30.833Z,3.50
2022-09-02T19:28:06.083Z,2.45
2022-09-02T19:30:37.265Z,2.13
2022-09-02T19:33:07.572Z,4.05
2022-09-02T19:35:42.281Z,1.75
2022-09-02T19:38:10.498Z,3.38
2022-09-02T19:40:40.035Z,2.55
2022-09-02T19:43:12.902Z,1.63
2022-09-02T19:45:40.429Z,2.63
2022-09-02T19:48:11.459Z,2.55
2022-09-02T19:50:45.127Z,1.77
2022-09-02T19:53:27.881Z,2.90
2022-09-02T19:55:55.324Z,5.20
2022-09-02T19:58:22.988Z,3.05
2022-09-02T20:00:53.246Z,2.58
2022-09-02T20:03:25.363Z,2.85
2022-09-02T20:05:52.889Z,3.58
2022-09-02T20:08:21.441Z,4.43
2022-09-02T20:10:57.136Z,2.45
2022-09-02T20:13:25.389Z,2.60
2022-09-02T20:15:54.048Z,2.20
2022-09-02T20:18:23.361Z,1.55
2022-09-02T20:20:54.774Z,2.63
2022-09-02T20:23:23.774Z,3.78
2022-09-02T20:26:22.836Z,2.38
2022-09-02T20:29:20.664Z,2.15
2022-09-02T20:31:52.570Z,3.08
2022-09-02T20:34:31.482Z,2.17
2022-09-02T20:37:26.720Z,3.75
2022-09-02T20:40:06.718Z,1.90
2022-09-02T20:43:01.007Z,3.38
2022-09-02T20:45:54.519Z,3.83
2022-09-02T20:48:39.894Z,4.07
2022-09-02T20:51:16.304Z,1.45
2022-09-02T20:54:11.682Z,1.55
2022-09-02T20:57:04.044Z,2.25
2022-09-02T20:59:43.871Z,2.25
2022-09-02T21:02:18.234Z,1.50
2022-09-02T21:04:52.862Z,3.58
2022-09-02T21:07:46.632Z,2.58
2022-09-02T21:10:23.489Z,1.48
2022-09-02T21:12:53.051Z,3.42
2022-09-02T21:15:28.835Z,3.25
2022-09-02T21:18:11.540Z,6.75
2022-09-02T21:21:01.513Z,3.28
2022-09-02T21:23:35.767Z,3.45
2022-09-02T21:26:40.806Z,3.40
2022-09-02T21:29:23.971Z,1.98
2022-09-02T21:31:59.324Z,2.63
2022-09-02T21:34:32.891Z,4.72
2022-09-02T21:37:04.384Z,1.95
2022-09-02T21:39:38.299Z,3.13
2022-09-02T21:42:30.551Z,2.38
2022-09-02T21:45:15.920Z,1.58
2022-09-02T21:48:19.126Z,1.17
2022-09-02T21:51:04.998Z,1.67
2022-09-02T21:54:04.228Z,1.92
2022-09-02T21:56:49.720Z,4.68
2022-09-02T21:59:47.228Z,3.38
2022-09-02T22:02:36.951Z,3.00
2022-09-02T22:05:30.510Z,4.10
2022-09-02T22:08:13.073Z,2.30
2022-09-02T22:10:48.983Z,2.50
2022-09-02T22:13:19.099Z,2.90
2022-09-02T22:16:20.885Z,6.18
2022-09-02T22:19:02.461Z,5.75
2022-09-02T22:21:53.995Z,2.50
2022-09-02T22:24:28.379Z,1.90
2022-09-02T22:27:02.852Z,2.35
2022-09-02T22:29:45.623Z,3.00
2022-09-02T22:32:27.904Z,4.45
2022-09-02T22:35:16.080Z,2.05
2022-09-02T22:37:56.640Z,1.92
2022-09-02T22:40:28.027Z,3.50
2022-09-02T22:43:04.651Z,1.55
2022-09-02T22:45:57.315Z,2.53
2022-09-02T22:49:12.073Z,2.33
2022-09-02T22:52:08.535Z,1.90
2022-09-02T22:54:38.274Z,4.97
2022-09-02T22:57:19.004Z,2.38
2022-09-02T23:00:09.329Z,3.25
2022-09-02T23:02:45.755Z,1.95
2022-09-02T23:05:57.584Z,3.05
2022-09-02T23:08:25.032Z,4.28
2022-09-02T23:11:11.727Z,5.50
2022-09-02T23:14:11.489Z,1.98
2022-09-02T23:17:23.793Z,5.90
2022-09-02T23:20:20.065Z,2.05
2022-09-02T23:22:47.213Z,2.72
2022-09-02T23:25:53.312Z,1.95
2022-09-02T23:28:39.298Z,4.97
2022-09-02T23:31:25.989Z,2.15
2022-09-02T23:34:07.051Z,4.28
2022-09-02T23:36:55.067Z,1.95
2022-09-02T23:39:53.545Z,2.10
2022-09-02T23:42:23.317Z,1.65
2022-09-02T23:45:07.519Z,6.68
2022-09-02T23:47:45.514Z,4.18
2022-09-02T23:50:23.143Z,2.53
2022-09-02T23:52:58.889Z,1.80
2022-09-02T23:55:51.093Z,2.15
2022-09-02T23:58:35.772Z,1.85
